Time;durP1;ratioP1;P1;durP2;ratioP2;P2;SDS_P1;SDS_P2;PMS_P1;PMS_P2;Temp;Humidity;BMP_temperature;BMP_pressure;BME280_temperature;BME280_humidity;BME280_pressure;Samples;Min_cycle;Max_cycle;Signal;HPM_P1;HPM_P2
2023/06/20 15:27:54;;;;;;;70.03;9.60;;;;;;;;;;5023317;28;20403;-57
2023/06/20 15:30:20;;;;;;;47.80;7.78;;;;;;;;;;5025118;28;20426;-57
2023/06/20 15:32:45;;;;;;;51.03;8.07;;;;;;;;;;5009386;28;20096;-54
2023/06/20 15:35:13;;;;;;;60.63;8.73;;;;;;;;;;4978981;28;20015;-58
2023/06/20 15:37:39;;;;;;;47.47;7.97;;;;;;;;;;4979978;28;20195;-58
2023/06/20 15:40:05;;;;;;;56.05;8.68;;;;;;;;;;4977345;28;20030;-57
2023/06/20 15:42:30;;;;;;;59.80;8.70;;;;;;;;;;4979066;28;20528;-55
2023/06/20 15:44:58;;;;;;;68.80;10.25;;;;;;;;;;4976884;28;20634;-57
2023/06/20 15:47:23;;;;;;;48.78;7.32;;;;;;;;;;4977673;28;20570;-58
2023/06/20 15:49:48;;;;;;;63.00;8.73;;;;;;;;;;4978276;28;20038;-55
2023/06/20 15:52:14;;;;;;;47.37;7.60;;;;;;;;;;4978986;28;20042;-57
2023/06/20 15:54:39;;;;;;;53.60;7.83;;;;;;;;;;4981040;28;20029;-57
2023/06/20 15:57:09;;;;;;;81.40;10.77;;;;;;;;;;4976000;28;20480;-56
2023/06/20 15:59:34;;;;;;;46.72;7.32;;;;;;;;;;4981040;28;20021;-55
2023/06/20 16:01:59;;;;;;;56.00;8.70;;;;;;;;;;4977448;28;20043;-56
2023/06/20 16:04:25;;;;;;;61.50;8.97;;;;;;;;;;4980384;28;20015;-59
2023/06/20 16:06:50;;;;;;;55.67;8.50;;;;;;;;;;4977297;28;20389;-57
2023/06/20 16:09:15;;;;;;;34.23;6.07;;;;;;;;;;4980005;28;20074;-56
2023/06/20 16:11:40;;;;;;;63.57;9.53;;;;;;;;;;4978626;28;20468;-57
2023/06/20 16:14:06;;;;;;;45.57;7.37;;;;;;;;;;4977788;28;20258;-56
2023/06/20 16:16:32;;;;;;;45.60;7.40;;;;;;;;;;4978354;28;20048;-58
2023/06/20 16:18:57;;;;;;;72.63;10.68;;;;;;;;;;4978581;28;20979;-56
2023/06/20 16:21:22;;;;;;;34.00;6.03;;;;;;;;;;4978797;28;20586;-57
2023/06/20 16:23:48;;;;;;;43.60;7.38;;;;;;;;;;4979603;28;20034;-57
2023/06/20 16:26:14;;;;;;;47.97;7.38;;;;;;;;;;4976349;28;20522;-57
2023/06/20 16:28:40;;;;;;;36.75;6.60;;;;;;;;;;4977904;28;20029;-58
2023/06/20 16:31:05;;;;;;;62.00;9.60;;;;;;;;;;4984508;28;20208;-56
2023/06/20 16:33:30;;;;;;;54.43;8.23;;;;;;;;;;4998731;28;20121;-58
2023/06/20 16:35:55;;;;;;;86.27;11.73;;;;;;;;;;4995457;28;20269;-56
2023/06/20 16:38:21;;;;;;;43.80;7.20;;;;;;;;;;4989802;28;20110;-58
2023/06/20 16:40:46;;;;;;;47.58;7.72;;;;;;;;;;4986525;28;20551;-56
2023/06/20 16:43:11;;;;;;;43.60;7.15;;;;;;;;;;4985642;28;20424;-56
2023/06/20 16:45:37;;;;;;;46.97;7.47;;;;;;;;;;4984930;28;20026;-55
2023/06/20 16:48:02;;;;;;;75.57;11.10;;;;;;;;;;4984236;28;20264;-56
2023/06/20 16:50:27;;;;;;;46.95;7.57;;;;;;;;;;4986566;28;20038;-58
2023/06/20 16:52:52;;;;;;;54.03;7.97;;;;;;;;;;4985069;28;20573;-57
2023/06/20 16:55:18;;;;;;;56.80;8.50;;;;;;;;;;4985694;28;20028;-59
2023/06/20 16:57:43;;;;;;;45.27;7.30;;;;;;;;;;4983646;28;20088;-56
2023/06/20 17:00:08;;;;;;;73.20;10.27;;;;;;;;;;4983561;28;20265;-58
2023/06/20 17:02:34;;;;;;;63.75;8.52;;;;;;;;;;4984410;28;20038;-58
2023/06/20 17:04:59;;;;;;;82.83;11.17;;;;;;;;;;4984361;28;20377;-59
2023/06/20 17:07:24;;;;;;;52.77;7.67;;;;;;;;;;4984012;28;20046;-57
2023/06/20 17:09:49;;;;;;;58.53;8.80;;;;;;;;;;4984416;28;20334;-58
2023/06/20 17:12:15;;;;;;;45.23;7.37;;;;;;;;;;4984496;28;20081;-58
2023/06/20 17:14:40;;;;;;;42.47;6.63;;;;;;;;;;4984665;28;20524;-57
2023/06/20 17:17:06;;;;;;;78.35;10.75;;;;;;;;;;4981488;28;20639;-59
2023/06/20 17:19:31;;;;;;;52.28;8.02;;;;;;;;;;4984179;28;20080;-59
2023/06/20 17:21:56;;;;;;;78.63;10.95;;;;;;;;;;4982255;28;20043;-58
2023/06/20 17:24:21;;;;;;;57.17;9.00;;;;;;;;;;4987208;28;20105;-57
2023/06/20 17:26:47;;;;;;;66.00;8.47;;;;;;;;;;4983197;28;20288;-59
2023/06/20 17:29:12;;;;;;;52.50;7.90;;;;;;;;;;4984057;28;20053;-59
2023/06/20 17:31:37;;;;;;;58.27;8.63;;;;;;;;;;4984253;28;20459;-59
2023/06/20 17:34:05;;;;;;;82.10;10.27;;;;;;;;;;4982826;28;20261;-59
2023/06/20 17:36:31;;;;;;;44.35;6.97;;;;;;;;;;4983067;28;20384;-59
2023/06/20 17:38:56;;;;;;;59.50;8.07;;;;;;;;;;4982262;28;20030;-56
2023/06/20 17:41:21;;;;;;;53.20;7.28;;;;;;;;;;4982999;28;20173;-57
2023/06/20 17:43:48;;;;;;;58.23;8.10;;;;;;;;;;4981691;28;20592;-55
2023/06/20 17:46:14;;;;;;;57.60;8.25;;;;;;;;;;4980361;28;20825;-58
2023/06/20 17:48:39;;;;;;;58.30;7.77;;;;;;;;;;4984642;28;20026;-57
2023/06/20 17:51:04;;;;;;;85.53;10.80;;;;;;;;;;4981093;28;20184;-57
2023/06/20 17:53:29;;;;;;;56.55;8.27;;;;;;;;;;4983654;28;20056;-57
2023/06/20 17:55:54;;;;;;;77.27;10.03;;;;;;;;;;4982762;28;20034;-56
2023/06/20 17:58:20;;;;;;;53.47;8.53;;;;;;;;;;4985529;28;20280;-57
2023/06/20 18:00:45;;;;;;;57.47;8.47;;;;;;;;;;4984415;28;20344;-58
2023/06/20 18:03:10;;;;;;;80.93;10.10;;;;;;;;;;4981215;28;20491;-57
2023/06/20 18:05:35;;;;;;;65.13;8.10;;;;;;;;;;4983991;28;20688;-57
2023/06/20 18:08:01;;;;;;;93.30;11.33;;;;;;;;;;4990020;28;20560;-57
2023/06/20 18:10:26;;;;;;;64.80;8.73;;;;;;;;;;4983838;28;20088;-59
2023/06/20 18:12:52;;;;;;;66.25;8.68;;;;;;;;;;4984394;28;20038;-56
2023/06/20 18:15:17;;;;;;;52.22;7.35;;;;;;;;;;4982053;28;20026;-56
2023/06/20 18:17:42;;;;;;;60.33;8.33;;;;;;;;;;4982615;28;20018;-56
2023/06/20 18:20:11;;;;;;;87.88;11.05;;;;;;;;;;4983222;28;20838;-55
2023/06/20 18:22:36;;;;;;;50.90;7.43;;;;;;;;;;4983767;28;20029;-56
2023/06/20 18:25:02;;;;;;;77.78;10.30;;;;;;;;;;4980866;28;20357;-58
2023/06/20 18:27:27;;;;;;;61.17;8.65;;;;;;;;;;4983076;28;20377;-58
2023/06/20 18:29:52;;;;;;;63.43;8.27;;;;;;;;;;4983954;28;20113;-60
2023/06/20 18:32:17;;;;;;;45.23;7.10;;;;;;;;;;4981626;28;20540;-60
2023/06/20 18:34:42;;;;;;;58.10;7.87;;;;;;;;;;4983232;28;20639;-57
2023/06/20 18:37:08;;;;;;;98.83;11.70;;;;;;;;;;4982134;28;20229;-58
2023/06/20 18:39:33;;;;;;;55.57;8.10;;;;;;;;;;4983060;28;20529;-56
2023/06/20 18:41:58;;;;;;;79.65;9.90;;;;;;;;;;4981075;28;20062;-59
2023/06/20 18:44:24;;;;;;;70.00;8.98;;;;;;;;;;4981962;28;20030;-56
2023/06/20 18:46:50;;;;;;;63.43;8.40;;;;;;;;;;4982289;28;20042;-57
2023/06/20 18:49:15;;;;;;;94.20;11.93;;;;;;;;;;4981060;28;20268;-58
2023/06/20 18:51:41;;;;;;;52.03;7.47;;;;;;;;;;4983168;28;20038;-58
2023/06/20 18:54:06;;;;;;;83.68;10.90;;;;;;;;;;4983072;28;20497;-63
2023/06/20 18:56:31;;;;;;;65.57;9.15;;;;;;;;;;4981402;28;20451;-59
2023/06/20 18:58:56;;;;;;;58.67;8.10;;;;;;;;;;4982525;28;20532;-58
2023/06/20 19:01:22;;;;;;;64.97;8.80;;;;;;;;;;4981996;28;20277;-60
2023/06/20 19:03:47;;;;;;;64.45;8.80;;;;;;;;;;4982515;28;20718;-57
2023/06/20 19:06:13;;;;;;;87.10;10.75;;;;;;;;;;4982038;28;20773;-58
2023/06/20 19:08:38;;;;;;;61.00;8.50;;;;;;;;;;4981612;28;20049;-56
2023/06/20 19:11:03;;;;;;;99.50;12.13;;;;;;;;;;4980571;28;20026;-56
2023/06/20 19:13:28;;;;;;;63.87;8.87;;;;;;;;;;4981942;28;20018;-58
2023/06/20 19:15:54;;;;;;;66.57;9.57;;;;;;;;;;4981702;28;20280;-54
2023/06/20 19:18:19;;;;;;;70.83;9.60;;;;;;;;;;4981770;28;20467;-57
2023/06/20 19:20:44;;;;;;;58.30;8.17;;;;;;;;;;4981072;28;20143;-57
2023/06/20 19:23:09;;;;;;;75.60;10.50;;;;;;;;;;4982377;28;20364;-57
2023/06/20 19:25:35;;;;;;;73.35;9.65;;;;;;;;;;4980544;28;20034;-57
2023/06/20 19:28:00;;;;;;;61.23;8.70;;;;;;;;;;4979963;28;20396;-55
2023/06/20 19:30:25;;;;;;;58.80;8.48;;;;;;;;;;4981354;28;20061;-56
2023/06/20 19:32:51;;;;;;;61.93;9.17;;;;;;;;;;4982427;28;20136;-55
2023/06/20 19:35:16;;;;;;;84.50;11.07;;;;;;;;;;4987260;28;20339;-57
2023/06/20 19:37:42;;;;;;;58.33;8.63;;;;;;;;;;4983671;28;20283;-57
2023/06/20 19:40:07;;;;;;;101.40;13.13;;;;;;;;;;4982316;28;20026;-56
2023/06/20 19:42:33;;;;;;;76.03;10.18;;;;;;;;;;4981874;28;20041;-58
2023/06/20 19:44:58;;;;;;;58.27;9.27;;;;;;;;;;4984057;28;20030;-56
2023/06/20 19:47:23;;;;;;;77.87;10.17;;;;;;;;;;4983168;28;20282;-56
2023/06/20 19:49:48;;;;;;;68.68;10.52;;;;;;;;;;4983349;28;20324;-58
2023/06/20 19:52:15;;;;;;;94.03;12.15;;;;;;;;;;4981164;28;20077;-56
2023/06/20 19:54:40;;;;;;;66.82;9.13;;;;;;;;;;4983025;28;20021;-58
2023/06/20 19:57:06;;;;;;;82.13;11.37;;;;;;;;;;4977986;28;20034;-59
2023/06/20 19:59:31;;;;;;;71.50;9.88;;;;;;;;;;4982784;28;20272;-56
2023/06/20 20:01:57;;;;;;;74.13;10.00;;;;;;;;;;4980869;28;20030;-57
2023/06/20 20:04:22;;;;;;;92.90;12.47;;;;;;;;;;4981037;28;20260;-57
2023/06/20 20:06:47;;;;;;;63.10;9.47;;;;;;;;;;4981529;28;20341;-57
2023/06/20 20:09:15;;;;;;;96.20;13.07;;;;;;;;;;4981566;28;20104;-54
2023/06/20 20:11:41;;;;;;;89.75;11.02;;;;;;;;;;4980696;28;20137;-58
2023/06/20 20:14:06;;;;;;;94.53;11.93;;;;;;;;;;4984358;28;20073;-56
2023/06/20 20:16:31;;;;;;;74.00;9.13;;;;;;;;;;4985408;28;20473;-57
2023/06/20 20:18:56;;;;;;;84.80;10.03;;;;;;;;;;4985612;28;20279;-56
2023/06/20 20:21:22;;;;;;;72.00;8.80;;;;;;;;;;4983282;28;20164;-55
2023/06/20 20:23:47;;;;;;;51.57;7.77;;;;;;;;;;4987022;28;20057;-57
2023/06/20 20:26:13;;;;;;;92.72;10.75;;;;;;;;;;4984281;28;20290;-56
2023/06/20 20:28:38;;;;;;;70.32;9.07;;;;;;;;;;4986141;28;20444;-55
2023/06/20 20:31:03;;;;;;;63.13;8.50;;;;;;;;;;4985018;28;20101;-55
2023/06/20 20:33:28;;;;;;;81.93;10.18;;;;;;;;;;4985282;28;20266;-57
2023/06/20 20:35:54;;;;;;;87.57;10.07;;;;;;;;;;4985895;28;20451;-56
2023/06/20 20:38:19;;;;;;;92.80;11.23;;;;;;;;;;4985378;28;20030;-58
2023/06/20 20:40:44;;;;;;;80.75;9.43;;;;;;;;;;4992907;28;20043;-57
2023/06/20 20:43:10;;;;;;;108.73;12.53;;;;;;;;;;4983326;28;20022;-59
2023/06/20 20:45:35;;;;;;;81.85;9.63;;;;;;;;;;4984030;28;20026;-59
2023/06/20 20:48:00;;;;;;;84.23;9.50;;;;;;;;;;4985488;28;20093;-57
2023/06/20 20:50:25;;;;;;;68.27;8.57;;;;;;;;;;4983855;28;20042;-59
2023/06/20 20:52:51;;;;;;;65.22;8.25;;;;;;;;;;4985640;28;20028;-55
2023/06/20 20:55:16;;;;;;;102.22;10.85;;;;;;;;;;4983668;28;20056;-56
2023/06/20 20:57:41;;;;;;;55.65;7.45;;;;;;;;;;4984654;28;20029;-56
2023/06/20 21:00:10;;;;;;;67.10;8.47;;;;;;;;;;4984092;28;20440;-56
2023/06/20 21:02:36;;;;;;;81.80;9.32;;;;;;;;;;4985227;28;20026;-57
2023/06/20 21:05:01;;;;;;;69.82;8.55;;;;;;;;;;4984459;28;20410;-56
2023/06/20 21:07:26;;;;;;;55.33;7.22;;;;;;;;;;4984321;28;20033;-57
2023/06/20 21:09:53;;;;;;;53.78;7.57;;;;;;;;;;4984904;28;20506;-59
